sensor_id;sensor_type;location;lat;lon;timestamp;pressure;altitude;pressure_sealevel;temperature
18713;BMP280;9485;49.386;8.674;2023-02-01T00:01:55;101122.19;;;8.59
18713;BMP280;9485;49.386;8.674;2023-02-01T00:07:15;101114.84;;;8.62
18713;BMP280;9485;49.386;8.674;2023-02-01T00:12:37;101108.59;;;8.67
18713;BMP280;9485;49.386;8.674;2023-02-01T00:17:58;101099.22;;;8.70
18713;BMP280;9485;49.386;8.674;2023-02-01T00:23:18;101096.72;;;8.72
18713;BMP280;9485;49.386;8.674;2023-02-01T00:28:40;101091.41;;;8.74
18713;BMP280;9485;49.386;8.674;2023-02-01T00:34:02;101095.31;;;8.76
18713;BMP280;9485;49.386;8.674;2023-02-01T00:39:22;101084.34;;;8.78
18713;BMP280;9485;49.386;8.674;2023-02-01T00:44:44;101076.22;;;8.80
18713;BMP280;9485;49.386;8.674;2023-02-01T00:50:07;101064.19;;;8.80
18713;BMP280;9485;49.386;8.674;2023-02-01T00:55:29;101056.81;;;8.82
18713;BMP280;9485;49.386;8.674;2023-02-01T01:01:01;101069.34;;;8.81
18713;BMP280;9485;49.386;8.674;2023-02-01T01:06:28;101061.81;;;8.78
18713;BMP280;9485;49.386;8.674;2023-02-01T01:11:49;101061.03;;;8.78
18713;BMP280;9485;49.386;8.674;2023-02-01T01:17:13;101070.75;;;8.77
18713;BMP280;9485;49.386;8.674;2023-02-01T01:22:34;101068.72;;;8.77
18713;BMP280;9485;49.386;8.674;2023-02-01T01:27:54;101073.88;;;8.79
18713;BMP280;9485;49.386;8.674;2023-02-01T01:33:16;101073.41;;;8.80
18713;BMP280;9485;49.386;8.674;2023-02-01T01:38:37;101069.00;;;8.79
18713;BMP280;9485;49.386;8.674;2023-02-01T01:44:00;101080.00;;;8.77
18713;BMP280;9485;49.386;8.674;2023-02-01T01:49:25;101060.56;;;8.79
18713;BMP280;9485;49.386;8.674;2023-02-01T01:54:51;101042.59;;;8.77
18713;BMP280;9485;49.386;8.674;2023-02-01T02:00:16;101054.94;;;8.79
18713;BMP280;9485;49.386;8.674;2023-02-01T02:06:06;101045.56;;;8.82
18713;BMP280;9485;49.386;8.674;2023-02-01T02:11:30;101043.06;;;8.84
18713;BMP280;9485;49.386;8.674;2023-02-01T02:17:02;101059.50;;;8.86
18713;BMP280;9485;49.386;8.674;2023-02-01T02:22:49;101043.69;;;8.88
18713;BMP280;9485;49.386;8.674;2023-02-01T02:34:22;101055.72;;;8.89
18713;BMP280;9485;49.386;8.674;2023-02-01T02:39:55;101044.00;;;8.90
18713;BMP280;9485;49.386;8.674;2023-02-01T02:45:27;101032.72;;;8.90
18713;BMP280;9485;49.386;8.674;2023-02-01T02:51:14;101010.97;;;8.91
18713;BMP280;9485;49.386;8.674;2023-02-01T02:57:03;101003.78;;;8.90
18713;BMP280;9485;49.386;8.674;2023-02-01T03:02:45;101002.69;;;8.87
18713;BMP280;9485;49.386;8.674;2023-02-01T03:08:27;101001.44;;;8.88
18713;BMP280;9485;49.386;8.674;2023-02-01T03:13:52;101005.97;;;8.86
18713;BMP280;9485;49.386;8.674;2023-02-01T03:19:18;101003.16;;;8.86
18713;BMP280;9485;49.386;8.674;2023-02-01T03:24:45;101002.06;;;8.83
18713;BMP280;9485;49.386;8.674;2023-02-01T03:30:16;101003.16;;;8.77
18713;BMP280;9485;49.386;8.674;2023-02-01T03:35:45;101008.19;;;8.73
18713;BMP280;9485;49.386;8.674;2023-02-01T03:41:15;101003.16;;;8.77
18713;BMP280;9485;49.386;8.674;2023-02-01T03:46:42;100986.41;;;8.73
18713;BMP280;9485;49.386;8.674;2023-02-01T03:52:11;101009.88;;;8.79
18713;BMP280;9485;49.386;8.674;2023-02-01T03:57:43;101015.50;;;8.79
18713;BMP280;9485;49.386;8.674;2023-02-01T04:03:06;100991.25;;;8.82
18713;BMP280;9485;49.386;8.674;2023-02-01T04:08:27;100987.34;;;8.79
18713;BMP280;9485;49.386;8.674;2023-02-01T04:13:49;100995.34;;;8.81
18713;BMP280;9485;49.386;8.674;2023-02-01T04:19:10;100986.75;;;8.84
18713;BMP280;9485;49.386;8.674;2023-02-01T04:24:30;100986.25;;;8.86
18713;BMP280;9485;49.386;8.674;2023-02-01T04:29:52;100975.59;;;8.90
18713;BMP280;9485;49.386;8.674;2023-02-01T04:35:13;100973.09;;;8.92
18713;BMP280;9485;49.386;8.674;2023-02-01T04:40:33;100987.50;;;8.94
18713;BMP280;9485;49.386;8.674;2023-02-01T04:45:57;100987.03;;;8.95
18713;BMP280;9485;49.386;8.674;2023-02-01T04:51:18;101000.78;;;8.93
18713;BMP280;9485;49.386;8.674;2023-02-01T04:56:39;100994.72;;;8.95
18713;BMP280;9485;49.386;8.674;2023-02-01T05:02:02;100982.97;;;8.96
18713;BMP280;9485;49.386;8.674;2023-02-01T05:07:23;100969.66;;;8.96
18713;BMP280;9485;49.386;8.674;2023-02-01T05:12:44;100975.00;;;8.95
18713;BMP280;9485;49.386;8.674;2023-02-01T05:18:23;100988.13;;;8.97
18713;BMP280;9485;49.386;8.674;2023-02-01T05:23:44;100980.47;;;8.98
18713;BMP280;9485;49.386;8.674;2023-02-01T05:29:22;100988.75;;;8.93
18713;BMP280;9485;49.386;8.674;2023-02-01T05:34:44;100990.00;;;8.83
18713;BMP280;9485;49.386;8.674;2023-02-01T05:40:06;101000.03;;;8.66
18713;BMP280;9485;49.386;8.674;2023-02-01T05:45:27;100992.66;;;8.50
18713;BMP280;9485;49.386;8.674;2023-02-01T05:50:49;100992.19;;;8.34
18713;BMP280;9485;49.386;8.674;2023-02-01T05:56:10;100995.78;;;8.25
18713;BMP280;9485;49.386;8.674;2023-02-01T06:01:30;100992.81;;;8.20
18713;BMP280;9485;49.386;8.674;2023-02-01T06:06:52;100997.34;;;8.18
18713;BMP280;9485;49.386;8.674;2023-02-01T06:12:13;100997.66;;;8.20
18713;BMP280;9485;49.386;8.674;2023-02-01T06:17:33;100990.00;;;8.20
18713;BMP280;9485;49.386;8.674;2023-02-01T06:22:55;101002.34;;;8.22
18713;BMP280;9485;49.386;8.674;2023-02-01T06:28:16;101009.53;;;8.23
18713;BMP280;9485;49.386;8.674;2023-02-01T06:33:37;101006.28;;;8.25
18713;BMP280;9485;49.386;8.674;2023-02-01T06:38:59;100995.31;;;8.27
18713;BMP280;9485;49.386;8.674;2023-02-01T06:44:20;101008.28;;;8.24
18713;BMP280;9485;49.386;8.674;2023-02-01T06:49:43;101020.63;;;8.27
18713;BMP280;9485;49.386;8.674;2023-02-01T06:55:06;101030.19;;;8.29
18713;BMP280;9485;49.386;8.674;2023-02-01T07:00:27;101022.06;;;8.31
18713;BMP280;9485;49.386;8.674;2023-02-01T07:05:48;101022.84;;;8.32
18713;BMP280;9485;49.386;8.674;2023-02-01T07:11:13;101024.41;;;8.33
18713;BMP280;9485;49.386;8.674;2023-02-01T07:16:36;101022.72;;;8.35
18713;BMP280;9485;49.386;8.674;2023-02-01T07:21:56;101021.28;;;8.40
18713;BMP280;9485;49.386;8.674;2023-02-01T07:27:18;101012.84;;;8.40
18713;BMP280;9485;49.386;8.674;2023-02-01T07:32:39;101016.13;;;8.38
18713;BMP280;9485;49.386;8.674;2023-02-01T07:38:00;101014.72;;;8.43
18713;BMP280;9485;49.386;8.674;2023-02-01T07:43:22;101003.31;;;8.46
18713;BMP280;9485;49.386;8.674;2023-02-01T07:48:43;101027.25;;;8.51
18713;BMP280;9485;49.386;8.674;2023-02-01T07:54:03;101027.56;;;8.53
18713;BMP280;9485;49.386;8.674;2023-02-01T07:59:26;101034.59;;;8.57
18713;BMP280;9485;49.386;8.674;2023-02-01T08:04:47;101050.09;;;8.62
18713;BMP280;9485;49.386;8.674;2023-02-01T08:10:09;101057.63;;;8.74
18713;BMP280;9485;49.386;8.674;2023-02-01T08:15:31;101076.84;;;8.93
18713;BMP280;9485;49.386;8.674;2023-02-01T08:20:53;101075.13;;;9.04
18713;BMP280;9485;49.386;8.674;2023-02-01T08:26:17;101082.78;;;9.13
18713;BMP280;9485;49.386;8.674;2023-02-01T08:31:39;101083.88;;;9.24
18713;BMP280;9485;49.386;8.674;2023-02-01T08:37:01;101080.47;;;9.70
18713;BMP280;9485;49.386;8.674;2023-02-01T08:42:22;101079.28;;;10.36
18713;BMP280;9485;49.386;8.674;2023-02-01T08:48:02;101082.59;;;10.35
18713;BMP280;9485;49.386;8.674;2023-02-01T08:53:23;101067.81;;;10.16
18713;BMP280;9485;49.386;8.674;2023-02-01T08:58:44;101063.44;;;10.06
18713;BMP280;9485;49.386;8.674;2023-02-01T09:04:06;101074.31;;;9.99
18713;BMP280;9485;49.386;8.674;2023-02-01T09:09:27;101086.19;;;9.94
18713;BMP280;9485;49.386;8.674;2023-02-01T09:14:49;101080.44;;;9.88
18713;BMP280;9485;49.386;8.674;2023-02-01T09:20:12;101093.44;;;9.86
18713;BMP280;9485;49.386;8.674;2023-02-01T09:25:33;101094.41;;;9.83
18713;BMP280;9485;49.386;8.674;2023-02-01T09:30:56;101088.91;;;9.88
18713;BMP280;9485;49.386;8.674;2023-02-01T09:36:19;101098.66;;;10.20
18713;BMP280;9485;49.386;8.674;2023-02-01T09:41:54;101111.63;;;10.58
18713;BMP280;9485;49.386;8.674;2023-02-01T09:47:20;101109.16;;;10.75
18713;BMP280;9485;49.386;8.674;2023-02-01T09:52:48;101115.13;;;10.77
18713;BMP280;9485;49.386;8.674;2023-02-01T09:58:18;101131.94;;;10.71
18713;BMP280;9485;49.386;8.674;2023-02-01T10:03:40;101146.41;;;10.64
18713;BMP280;9485;49.386;8.674;2023-02-01T10:09:25;101152.91;;;10.56
18713;BMP280;9485;49.386;8.674;2023-02-01T10:15:02;101160.28;;;10.53
18713;BMP280;9485;49.386;8.674;2023-02-01T10:21:03;101160.47;;;10.50
18713;BMP280;9485;49.386;8.674;2023-02-01T10:26:36;101150.44;;;10.49
18713;BMP280;9485;49.386;8.674;2023-02-01T10:31:57;101146.53;;;10.47
18713;BMP280;9485;49.386;8.674;2023-02-01T10:37:33;101151.88;;;10.45
18713;BMP280;9485;49.386;8.674;2023-02-01T10:42:59;101146.69;;;10.43
18713;BMP280;9485;49.386;8.674;2023-02-01T10:48:21;101144.38;;;10.42
18713;BMP280;9485;49.386;8.674;2023-02-01T10:53:48;101145.63;;;10.41
18713;BMP280;9485;49.386;8.674;2023-02-01T10:59:18;101140.31;;;10.34
18713;BMP280;9485;49.386;8.674;2023-02-01T11:04:39;101135.47;;;10.25
18713;BMP280;9485;49.386;8.674;2023-02-01T11:10:00;101131.22;;;10.30
18713;BMP280;9485;49.386;8.674;2023-02-01T11:15:24;101107.22;;;10.34
18713;BMP280;9485;49.386;8.674;2023-02-01T11:20:48;101088.84;;;10.39
18713;BMP280;9485;49.386;8.674;2023-02-01T11:26:14;101093.06;;;10.43
18713;BMP280;9485;49.386;8.674;2023-02-01T11:31:37;101085.53;;;10.40
18713;BMP280;9485;49.386;8.674;2023-02-01T11:37:01;101086.16;;;10.44
18713;BMP280;9485;49.386;8.674;2023-02-01T11:42:24;101087.72;;;10.45
18713;BMP280;9485;49.386;8.674;2023-02-01T11:47:51;101088.97;;;10.44
18713;BMP280;9485;49.386;8.674;2023-02-01T11:53:34;101076.88;;;10.44
18713;BMP280;9485;49.386;8.674;2023-02-01T12:05:14;101075.03;;;10.41
18713;BMP280;9485;49.386;8.674;2023-02-01T12:10:53;101079.13;;;10.40
18713;BMP280;9485;49.386;8.674;2023-02-01T12:16:29;101088.66;;;10.42
18713;BMP280;9485;49.386;8.674;2023-02-01T12:22:09;101083.78;;;10.43
18713;BMP280;9485;49.386;8.674;2023-02-01T12:33:41;101076.25;;;10.48
18713;BMP280;9485;49.386;8.674;2023-02-01T12:39:19;101070.88;;;10.50
18713;BMP280;9485;49.386;8.674;2023-02-01T12:44:49;101057.84;;;10.53
18713;BMP280;9485;49.386;8.674;2023-02-01T12:50:18;101063.78;;;10.55
18713;BMP280;9485;49.386;8.674;2023-02-01T12:55:48;101046.72;;;10.49
18713;BMP280;9485;49.386;8.674;2023-02-01T13:01:18;101045.81;;;10.44
18713;BMP280;9485;49.386;8.674;2023-02-01T13:06:49;101037.66;;;10.46
18713;BMP280;9485;49.386;8.674;2023-02-01T13:12:19;101025.88;;;10.47
18713;BMP280;9485;49.386;8.674;2023-02-01T13:17:42;101011.66;;;10.42
18713;BMP280;9485;49.386;8.674;2023-02-01T13:23:23;101016.94;;;10.48
18713;BMP280;9485;49.386;8.674;2023-02-01T13:28:50;101016.63;;;10.47
18713;BMP280;9485;49.386;8.674;2023-02-01T13:34:51;101011.00;;;10.47
18713;BMP280;9485;49.386;8.674;2023-02-01T13:40:37;101001.72;;;10.46
18713;BMP280;9485;49.386;8.674;2023-02-01T13:46:05;101008.47;;;10.48
18713;BMP280;9485;49.386;8.674;2023-02-01T13:51:37;101016.94;;;10.48
18713;BMP280;9485;49.386;8.674;2023-02-01T13:57:01;101015.19;;;10.51
18713;BMP280;9485;49.386;8.674;2023-02-01T14:08:45;101004.84;;;10.48
18713;BMP280;9485;49.386;8.674;2023-02-01T14:14:48;101004.38;;;10.49
18713;BMP280;9485;49.386;8.674;2023-02-01T14:20:40;101014.75;;;10.44
18713;BMP280;9485;49.386;8.674;2023-02-01T14:26:19;101013.50;;;10.45
18713;BMP280;9485;49.386;8.674;2023-02-01T14:31:48;101022.47;;;10.43
18713;BMP280;9485;49.386;8.674;2023-02-01T14:37:24;101024.50;;;10.43
18713;BMP280;9485;49.386;8.674;2023-02-01T14:42:49;101030.44;;;10.45
18713;BMP280;9485;49.386;8.674;2023-02-01T14:48:44;101022.28;;;10.47
18713;BMP280;9485;49.386;8.674;2023-02-01T14:54:12;101019.47;;;10.47
18713;BMP280;9485;49.386;8.674;2023-02-01T14:59:36;101021.66;;;10.43
18713;BMP280;9485;49.386;8.674;2023-02-01T15:04:57;101032.00;;;10.46
18713;BMP280;9485;49.386;8.674;2023-02-01T15:10:21;101019.94;;;10.45
18713;BMP280;9485;49.386;8.674;2023-02-01T15:15:44;101040.97;;;10.44
18713;BMP280;9485;49.386;8.674;2023-02-01T15:21:06;101027.31;;;10.43
18713;BMP280;9485;49.386;8.674;2023-02-01T15:26:30;101046.00;;;10.40
18713;BMP280;9485;49.386;8.674;2023-02-01T15:31:53;101042.72;;;10.42
18713;BMP280;9485;49.386;8.674;2023-02-01T15:37:16;101025.59;;;10.45
18713;BMP280;9485;49.386;8.674;2023-02-01T15:42:50;101004.84;;;10.48
18713;BMP280;9485;49.386;8.674;2023-02-01T15:48:22;101002.66;;;10.52
18713;BMP280;9485;49.386;8.674;2023-02-01T15:53:47;101007.50;;;10.51
18713;BMP280;9485;49.386;8.674;2023-02-01T15:59:16;101007.50;;;10.51
18713;BMP280;9485;49.386;8.674;2023-02-01T16:04:47;101011.88;;;10.52
18713;BMP280;9485;49.386;8.674;2023-02-01T16:10:26;101019.09;;;10.53
18713;BMP280;9485;49.386;8.674;2023-02-01T16:15:50;101020.94;;;10.56
18713;BMP280;9485;49.386;8.674;2023-02-01T16:21:12;101018.28;;;10.53
18713;BMP280;9485;49.386;8.674;2023-02-01T16:26:34;101023.19;;;10.52
18713;BMP280;9485;49.386;8.674;2023-02-01T16:31:54;101020.53;;;10.49
18713;BMP280;9485;49.386;8.674;2023-02-01T16:37:22;101013.81;;;10.47
18713;BMP280;9485;49.386;8.674;2023-02-01T16:42:43;101030.44;;;10.45
18713;BMP280;9485;49.386;8.674;2023-02-01T16:48:04;101038.16;;;10.44
18713;BMP280;9485;49.386;8.674;2023-02-01T16:53:30;101032.50;;;10.44
18713;BMP280;9485;49.386;8.674;2023-02-01T16:58:51;101040.66;;;10.42
18713;BMP280;9485;49.386;8.674;2023-02-01T17:04:13;101035.78;;;10.43
18713;BMP280;9485;49.386;8.674;2023-02-01T17:09:37;101040.66;;;10.42
18713;BMP280;9485;49.386;8.674;2023-02-01T17:14:59;101029.38;;;10.42
18713;BMP280;9485;49.386;8.674;2023-02-01T17:20:23;101022.16;;;10.41
18713;BMP280;9485;49.386;8.674;2023-02-01T17:25:45;101010.38;;;10.43
18713;BMP280;9485;49.386;8.674;2023-02-01T17:31:10;101016.50;;;10.41
18713;BMP280;9485;49.386;8.674;2023-02-01T17:36:32;101020.59;;;10.40
18713;BMP280;9485;49.386;8.674;2023-02-01T17:41:56;101019.81;;;10.40
18713;BMP280;9485;49.386;8.674;2023-02-01T17:47:16;101029.84;;;10.41
18713;BMP280;9485;49.386;8.674;2023-02-01T17:52:37;101025.47;;;10.40
18713;BMP280;9485;49.386;8.674;2023-02-01T17:57:59;101031.44;;;10.42
18713;BMP280;9485;49.386;8.674;2023-02-01T18:03:23;101028.13;;;10.43
18713;BMP280;9485;49.386;8.674;2023-02-01T18:08:44;101032.97;;;10.43
18713;BMP280;9485;49.386;8.674;2023-02-01T18:14:11;101032.38;;;10.39
18713;BMP280;9485;49.386;8.674;2023-02-01T18:19:32;101039.28;;;10.38
18713;BMP280;9485;49.386;8.674;2023-02-01T18:24:53;101032.38;;;10.39
18713;BMP280;9485;49.386;8.674;2023-02-01T18:30:16;101039.59;;;10.40
18713;BMP280;9485;49.386;8.674;2023-02-01T18:35:37;101033.94;;;10.40
18713;BMP280;9485;49.386;8.674;2023-02-01T18:40:57;101036.28;;;10.41
18713;BMP280;9485;49.386;8.674;2023-02-01T18:46:23;101037.84;;;10.42
18713;BMP280;9485;49.386;8.674;2023-02-01T18:51:45;101030.31;;;10.39
18713;BMP280;9485;49.386;8.674;2023-02-01T18:57:05;101048.53;;;10.38
18713;BMP280;9485;49.386;8.674;2023-02-01T19:02:28;101053.09;;;10.36
18713;BMP280;9485;49.386;8.674;2023-02-01T19:07:50;101055.91;;;10.36
18713;BMP280;9485;49.386;8.674;2023-02-01T19:13:12;101051.25;;;10.33
18713;BMP280;9485;49.386;8.674;2023-02-01T19:18:35;101040.44;;;10.31
18713;BMP280;9485;49.386;8.674;2023-02-01T19:23:56;101046.84;;;10.32
18713;BMP280;9485;49.386;8.674;2023-02-01T19:29:16;101052.81;;;10.34
18713;BMP280;9485;49.386;8.674;2023-02-01T19:34:39;101053.56;;;10.34
18713;BMP280;9485;49.386;8.674;2023-02-01T19:39:59;101048.72;;;10.35
18713;BMP280;9485;49.386;8.674;2023-02-01T19:45:20;101059.22;;;10.34
18713;BMP280;9485;49.386;8.674;2023-02-01T19:50:42;101056.69;;;10.36
18713;BMP280;9485;49.386;8.674;2023-02-01T19:56:04;101049.50;;;10.35
18713;BMP280;9485;49.386;8.674;2023-02-01T20:01:25;101044.63;;;10.36
18713;BMP280;9485;49.386;8.674;2023-02-01T20:06:47;101039.16;;;10.32
18713;BMP280;9485;49.386;8.674;2023-02-01T20:12:10;101045.09;;;10.34
18713;BMP280;9485;49.386;8.674;2023-02-01T20:17:31;101046.66;;;10.35
18713;BMP280;9485;49.386;8.674;2023-02-01T20:22:53;101045.91;;;10.35
18713;BMP280;9485;49.386;8.674;2023-02-01T20:28:13;101047.44;;;10.36
18713;BMP280;9485;49.386;8.674;2023-02-01T20:33:34;101046.66;;;10.35
18713;BMP280;9485;49.386;8.674;2023-02-01T20:38:57;101051.53;;;10.35
18713;BMP280;9485;49.386;8.674;2023-02-01T20:44:17;101069.06;;;10.39
18713;BMP280;9485;49.386;8.674;2023-02-01T20:49:38;101061.88;;;10.38
18713;BMP280;9485;49.386;8.674;2023-02-01T20:55:00;101072.66;;;10.39
18713;BMP280;9485;49.386;8.674;2023-02-01T21:00:22;101075.03;;;10.41
18713;BMP280;9485;49.386;8.674;2023-02-01T21:05:47;101081.75;;;10.43
18713;BMP280;9485;49.386;8.674;2023-02-01T21:11:10;101069.66;;;10.43
18713;BMP280;9485;49.386;8.674;2023-02-01T21:16:31;101074.84;;;10.44
18713;BMP280;9485;49.386;8.674;2023-02-01T21:21:53;101077.69;;;10.44
18713;BMP280;9485;49.386;8.674;2023-02-01T21:27:15;101069.78;;;10.48
18713;BMP280;9485;49.386;8.674;2023-02-01T21:32:36;101053.84;;;10.45
18713;BMP280;9485;49.386;8.674;2023-02-01T21:37:57;101049.13;;;10.42
18713;BMP280;9485;49.386;8.674;2023-02-01T21:43:19;101058.84;;;10.41
18713;BMP280;9485;49.386;8.674;2023-02-01T21:48:39;101062.94;;;10.40
18713;BMP280;9485;49.386;8.674;2023-02-01T21:54:00;101078.13;;;10.43
18713;BMP280;9485;49.386;8.674;2023-02-01T21:59:22;101072.03;;;10.44
18713;BMP280;9485;49.386;8.674;2023-02-01T22:04:43;101069.97;;;10.45
18713;BMP280;9485;49.386;8.674;2023-02-01T22:10:05;101082.06;;;10.45
18713;BMP280;9485;49.386;8.674;2023-02-01T22:15:27;101066.22;;;10.48
18713;BMP280;9485;49.386;8.674;2023-02-01T22:20:47;101072.81;;;10.45
18713;BMP280;9485;49.386;8.674;2023-02-01T22:26:13;101081.09;;;10.48
18713;BMP280;9485;49.386;8.674;2023-02-01T22:31:35;101082.66;;;10.49
18713;BMP280;9485;49.386;8.674;2023-02-01T22:36:55;101090.66;;;10.50
18713;BMP280;9485;49.386;8.674;2023-02-01T22:42:15;101080.59;;;10.49
18713;BMP280;9485;49.386;8.674;2023-02-01T22:47:38;101080.31;;;10.48
18713;BMP280;9485;49.386;8.674;2023-02-01T22:52:58;101091.44;;;10.51
18713;BMP280;9485;49.386;8.674;2023-02-01T22:58:19;101094.72;;;10.49
18713;BMP280;9485;49.386;8.674;2023-02-01T23:03:41;101087.53;;;10.48
18713;BMP280;9485;49.386;8.674;2023-02-01T23:09:05;101094.13;;;10.46
18713;BMP280;9485;49.386;8.674;2023-02-01T23:14:29;101079.25;;;10.45
18713;BMP280;9485;49.386;8.674;2023-02-01T23:19:51;101097.44;;;10.44
18713;BMP280;9485;49.386;8.674;2023-02-01T23:25:14;101075.03;;;10.41
18713;BMP280;9485;49.386;8.674;2023-02-01T23:30:35;101074.84;;;10.44
18713;BMP280;9485;49.386;8.674;2023-02-01T23:36:02;101068.91;;;10.42
18713;BMP280;9485;49.386;8.674;2023-02-01T23:41:24;101072.22;;;10.41
18713;BMP280;9485;49.386;8.674;2023-02-01T23:46:45;101069.38;;;10.41
18713;BMP280;9485;49.386;8.674;2023-02-01T23:52:09;101079.44;;;10.42
18713;BMP280;9485;49.386;8.674;2023-02-01T23:57:29;101075.03;;;10.41
